Time;durP1;ratioP1;P1;durP2;ratioP2;P2;SDS_P1;SDS_P2;PMS_P1;PMS_P2;Temp;Humidity;BMP_temperature;BMP_pressure;BME280_temperature;BME280_humidity;BME280_pressure;Samples;Min_cycle;Max_cycle;Signal;HPM_P1;HPM_P2
2022/10/21 00:00:11;;;;;;;20.02;14.30;;;;;;;8.37;100.00;154631.31;4992667;28;20128;-78
2022/10/21 00:02:39;;;;;;;16.08;13.50;;;;;;;8.31;100.00;154617.22;5026715;28;20042;-79
2022/10/21 00:05:05;;;;;;;17.42;14.00;;;;;;;8.31;100.00;154617.22;4994633;28;20042;-78
2022/10/21 00:07:32;;;;;;;18.80;13.10;;;;;;;8.32;100.00;154619.75;5010129;28;20038;-78
2022/10/21 00:09:58;;;;;;;19.20;13.30;;;;;;;8.33;100.00;154621.06;4997998;28;20036;-81
2022/10/21 00:12:27;;;;;;;18.33;13.20;;;;;;;8.24;100.00;154599.28;4992141;28;20042;-79
2022/10/21 00:14:53;;;;;;;20.42;13.52;;;;;;;8.23;100.00;154595.41;4997545;28;20045;-79
2022/10/21 00:17:19;;;;;;;18.10;13.75;;;;;;;8.26;100.00;154604.38;5009060;28;20037;-78
2022/10/21 00:19:45;;;;;;;20.25;13.35;;;;;;;8.23;100.00;154595.41;5003276;28;20057;-80
2022/10/21 00:22:11;;;;;;;16.65;13.15;;;;;;;8.25;100.00;154601.84;5001008;28;20095;-80
2022/10/21 00:24:40;;;;;;;18.45;13.98;;;;;;;8.26;100.00;154603.13;5012254;28;20092;-80
2022/10/21 00:27:11;;;;;;;22.52;13.23;;;;;;;8.05;100.00;154550.59;5006858;28;20072;-79
2022/10/21 00:29:37;;;;;;;16.85;14.00;;;;;;;8.26;100.00;154604.38;5032383;28;20033;-80
2022/10/21 00:32:10;;;;;;;16.73;13.75;;;;;;;8.01;100.00;154541.63;5005901;28;20103;-80
2022/10/21 00:34:42;;;;;;;19.02;13.77;;;;;;;7.96;100.00;154530.09;4997264;28;20037;-81
2022/10/21 00:37:11;;;;;;;17.30;13.82;;;;;;;8.15;100.00;154577.47;5012679;28;20037;-80
2022/10/21 00:39:43;;;;;;;16.67;13.18;;;;;;;8.11;100.00;154565.97;5020780;28;20044;-80
2022/10/21 00:42:17;;;;;;;20.05;13.90;;;;;;;8.30;100.00;154613.34;5007719;28;20033;-80
2022/10/21 00:45:01;;;;;;;23.15;14.57;;;;;;;8.33;100.00;154621.06;5006030;28;20412;-80
2022/10/21 00:47:28;;;;;;;17.15;13.57;;;;;;;8.36;100.00;154628.72;5010684;28;20033;-79
2022/10/21 00:50:02;;;;;;;19.02;14.02;;;;;;;8.33;100.00;154621.06;5008015;28;20802;-80
2022/10/21 00:52:32;;;;;;;22.02;14.27;;;;;;;8.25;100.00;154600.53;5008523;28;20042;-78
2022/10/21 00:55:01;;;;;;;22.95;14.95;;;;;;;8.32;100.00;154618.47;5023531;28;20038;-80
2022/10/21 00:57:29;;;;;;;21.60;15.20;;;;;;;8.29;100.00;154612.09;5006985;28;20034;-79
2022/10/21 01:00:00;;;;;;;21.90;15.00;;;;;;;8.30;100.00;154613.34;5001289;28;20033;-79
2022/10/21 01:02:28;;;;;;;20.48;16.40;;;;;;;8.25;100.00;154600.53;5013081;28;20036;-75
2022/10/21 01:04:58;;;;;;;19.67;14.70;;;;;;;8.29;100.00;154612.09;5011624;28;20038;-77
2022/10/21 01:07:24;;;;;;;19.35;15.25;;;;;;;8.29;100.00;154610.81;5008150;28;20034;-82
2022/10/21 01:09:50;;;;;;;20.25;14.32;;;;;;;8.30;100.00;154613.34;5027240;28;20038;-78
2022/10/21 01:12:34;;;;;;;24.00;14.60;;;;;;;8.30;100.00;154613.34;5013737;28;20030;-78
2022/10/21 01:15:34;;;;;;;20.20;14.43;;;;;;;8.34;100.00;154623.59;5023760;28;20076;-79
2022/10/21 01:18:34;;;;;;;19.23;14.13;;;;;;;8.36;100.00;154628.72;5016261;28;20042;-77
2022/10/21 01:21:08;;;;;;;19.08;14.25;;;;;;;8.39;100.00;154637.69;5009883;28;20061;-79
2022/10/21 01:24:02;;;;;;;18.08;14.48;;;;;;;8.39;100.00;154636.41;5027326;28;20095;-78
2022/10/21 01:26:44;;;;;;;22.15;15.02;;;;;;;8.42;100.00;154644.19;5012990;28;20046;-79
2022/10/21 01:29:34;;;;;;;21.05;14.40;;;;;;;8.40;100.00;154639.00;5011510;28;20073;-77
2022/10/21 01:32:13;;;;;;;18.05;14.23;;;;;;;8.31;100.00;154617.22;5012267;28;20068;-78
2022/10/21 01:34:51;;;;;;;19.35;13.90;;;;;;;8.31;100.00;154617.22;5016302;28;20033;-79
2022/10/21 01:37:31;;;;;;;20.33;14.88;;;;;;;8.26;100.00;154604.38;5041150;28;20116;-78
2022/10/21 01:40:16;;;;;;;20.50;14.73;;;;;;;8.24;100.00;154598.00;5031156;28;20057;-79
2022/10/21 01:42:52;;;;;;;19.73;14.00;;;;;;;8.21;100.00;154591.56;5004809;28;20497;-79
2022/10/21 01:45:45;;;;;;;21.40;15.20;;;;;;;8.18;100.00;154583.91;4999968;28;20048;-78
2022/10/21 01:48:16;;;;;;;19.33;14.48;;;;;;;8.18;100.00;154583.91;5034671;28;20072;-81
2022/10/21 01:50:47;;;;;;;17.55;14.70;;;;;;;8.12;100.00;154569.81;5020619;28;20038;-79
2022/10/21 01:53:15;;;;;;;21.25;15.05;;;;;;;8.06;100.00;154553.16;5000726;28;20038;-79
2022/10/21 01:55:43;;;;;;;19.02;14.38;;;;;;;8.10;100.00;154564.69;5033551;28;20038;-80
2022/10/21 01:58:15;;;;;;;20.08;15.05;;;;;;;8.05;100.00;154550.59;5014101;28;20073;-77
2022/10/21 02:00:42;;;;;;;17.93;15.43;;;;;;;8.15;100.00;154576.22;5017168;28;20045;-81
2022/10/21 02:03:12;;;;;;;23.40;16.48;;;;;;;8.07;100.00;154557.00;5003624;28;20125;-80
2022/10/21 02:05:38;;;;;;;19.52;15.80;;;;;;;8.14;100.00;154574.94;5027892;28;20108;-80
2022/10/21 02:08:04;;;;;;;23.30;16.00;;;;;;;8.12;100.00;154568.56;5029185;28;20033;-78
2022/10/21 02:10:36;;;;;;;20.02;15.32;;;;;;;8.19;100.00;154586.44;4991927;28;20038;-81
2022/10/21 02:13:05;;;;;;;24.60;16.33;;;;;;;8.15;100.00;154577.47;4998979;28;20034;-77
2022/10/21 02:15:32;;;;;;;24.27;15.70;;;;;;;8.14;100.00;154573.66;5002996;28;20107;-80
2022/10/21 02:18:07;;;;;;;22.55;15.20;;;;;;;8.13;100.00;154571.09;5019190;28;20038;-81
2022/10/21 02:20:40;;;;;;;24.60;16.23;;;;;;;8.05;100.00;154550.59;5016815;28;20042;-78
2022/10/21 02:23:07;;;;;;;21.60;16.17;;;;;;;8.00;100.00;154539.06;5016567;28;20572;-79
2022/10/21 02:25:37;;;;;;;21.30;15.68;;;;;;;7.99;100.00;154536.53;5018957;28;20042;-79
2022/10/21 02:28:03;;;;;;;21.27;17.15;;;;;;;7.97;100.00;154531.41;5013489;28;20121;-77
2022/10/21 02:30:38;;;;;;;20.65;15.75;;;;;;;7.98;100.00;154533.94;4994128;28;20038;-80
2022/10/21 02:33:10;;;;;;;23.90;16.40;;;;;;;8.00;100.00;154539.06;5011525;28;20053;-81
2022/10/21 02:35:57;;;;;;;22.63;17.27;;;;;;;7.98;100.00;154535.22;5015394;28;20491;-80
2022/10/21 02:38:31;;;;;;;21.17;16.67;;;;;;;7.97;100.00;154532.66;5009021;28;20060;-82
2022/10/21 02:41:01;;;;;;;24.85;18.25;;;;;;;7.94;100.00;154523.69;5014851;28;20064;-81
2022/10/21 02:43:34;;;;;;;27.48;17.58;;;;;;;7.90;100.00;154513.47;5004749;28;20068;-82
2022/10/21 02:46:05;;;;;;;24.25;16.00;;;;;;;7.94;100.00;154524.97;5008708;28;20073;-80
2022/10/21 02:48:32;;;;;;;25.35;17.40;;;;;;;8.02;100.00;154542.91;5026371;28;20033;-82
2022/10/21 02:51:00;;;;;;;22.77;17.50;;;;;;;7.96;100.00;154530.09;5005252;28;20180;-83
2022/10/21 02:53:26;;;;;;;23.15;16.90;;;;;;;7.97;100.00;154532.66;5010203;28;20610;-80
2022/10/21 02:55:51;;;;;;;24.75;16.25;;;;;;;7.82;100.00;154492.94;5002045;28;20042;-82
2022/10/21 02:58:17;;;;;;;20.48;16.60;;;;;;;7.94;100.00;154523.69;5006535;28;20038;-82
2022/10/21 03:00:42;;;;;;;26.65;18.15;;;;;;;7.93;100.00;154521.13;5024821;28;20030;-82
2022/10/21 03:03:08;;;;;;;24.80;17.42;;;;;;;7.98;100.00;154533.94;5024644;28;20563;-80
2022/10/21 03:05:34;;;;;;;24.85;18.13;;;;;;;7.92;100.00;154519.84;5014740;28;20038;-81
2022/10/21 03:07:59;;;;;;;24.30;17.00;;;;;;;7.92;100.00;154519.84;5015980;28;20041;-81
2022/10/21 03:10:25;;;;;;;26.65;17.90;;;;;;;7.96;100.00;154528.81;5001033;28;20468;-80
2022/10/21 03:12:50;;;;;;;24.23;16.95;;;;;;;8.05;100.00;154551.88;5015399;28;20097;-80
2022/10/21 03:15:16;;;;;;;23.02;16.80;;;;;;;7.99;100.00;154536.53;5018972;28;20451;-81
2022/10/21 03:17:42;;;;;;;20.63;16.40;;;;;;;8.08;100.00;154558.25;5029349;28;20034;-82
2022/10/21 03:20:07;;;;;;;22.45;16.50;;;;;;;8.08;100.00;154559.56;4983193;28;20045;-82
2022/10/21 03:22:33;;;;;;;24.88;16.50;;;;;;;8.11;100.00;154567.22;5028083;28;20029;-81
2022/10/21 03:24:59;;;;;;;24.42;17.25;;;;;;;8.06;100.00;154554.47;5012906;28;20052;-81
2022/10/21 03:27:25;;;;;;;27.48;17.73;;;;;;;8.09;100.00;154562.13;5010192;28;20032;-79
2022/10/21 03:29:51;;;;;;;24.83;17.67;;;;;;;8.01;100.00;154541.63;5018797;28;20411;-83
2022/10/21 03:32:16;;;;;;;22.98;16.23;;;;;;;8.05;100.00;154551.88;5021575;28;20049;-82
2022/10/21 03:34:42;;;;;;;21.55;16.48;;;;;;;8.04;100.00;154548.03;5012424;28;20034;-82
2022/10/21 03:37:08;;;;;;;21.00;16.60;;;;;;;8.00;100.00;154539.06;5000691;28;20038;-81
2022/10/21 03:39:34;;;;;;;26.67;18.60;;;;;;;8.01;100.00;154540.38;5027542;28;20033;-81
2022/10/21 03:41:59;;;;;;;24.35;16.80;;;;;;;7.99;100.00;154536.53;5029627;28;20055;-82
2022/10/21 03:44:25;;;;;;;25.98;17.85;;;;;;;7.96;100.00;154528.81;5015603;28;20064;-81
2022/10/21 03:46:50;;;;;;;31.38;19.42;;;;;;;7.99;100.00;154537.78;5010622;28;20100;-79
2022/10/21 03:49:16;;;;;;;23.65;18.00;;;;;;;7.97;100.00;154532.66;5028569;28;20061;-80
2022/10/21 03:51:42;;;;;;;25.65;17.77;;;;;;;7.95;100.00;154527.56;4998139;28;20080;-81
2022/10/21 03:54:07;;;;;;;24.67;17.85;;;;;;;8.04;100.00;154549.28;5002046;28;20500;-81
2022/10/21 03:56:33;;;;;;;27.67;18.75;;;;;;;7.84;100.00;154499.38;5000566;28;20099;-80
2022/10/21 03:58:59;;;;;;;24.45;18.65;;;;;;;7.90;100.00;154514.72;5014001;28;20148;-82
2022/10/21 04:01:25;;;;;;;24.52;18.70;;;;;;;7.85;100.00;154501.91;5013387;28;20112;-81
2022/10/21 04:03:51;;;;;;;28.52;18.75;;;;;;;7.95;100.00;154526.28;5030620;28;20038;-78
2022/10/21 04:06:16;;;;;;;28.83;19.23;;;;;;;7.94;100.00;154524.97;5000276;28;20114;-82
2022/10/21 04:08:42;;;;;;;29.55;19.75;;;;;;;7.86;100.00;154503.22;5027885;28;20038;-81
2022/10/21 04:11:07;;;;;;;30.65;19.10;;;;;;;7.84;100.00;154499.38;5004264;28;20036;-80
2022/10/21 04:13:34;;;;;;;28.52;19.77;;;;;;;7.85;100.00;154501.91;5003964;28;20495;-82
2022/10/21 04:16:06;;;;;;;30.88;19.10;;;;;;;7.84;100.00;154499.38;5019361;28;20038;-81
2022/10/21 04:18:31;;;;;;;26.67;19.63;;;;;;;7.86;100.00;154504.50;5012242;28;20046;-80
2022/10/21 04:20:57;;;;;;;25.67;18.92;;;;;;;7.88;100.00;154508.34;5000537;28;20088;-80
2022/10/21 04:23:23;;;;;;;31.63;20.35;;;;;;;7.88;100.00;154508.34;4997497;28;20127;-82
2022/10/21 04:25:48;;;;;;;29.33;19.58;;;;;;;7.88;100.00;154509.63;5011184;28;20041;-80
2022/10/21 04:28:14;;;;;;;26.83;18.65;;;;;;;7.89;100.00;154510.88;4994364;28;20041;-82
2022/10/21 04:30:39;;;;;;;28.95;20.23;;;;;;;7.88;100.00;154509.63;5027728;28;20033;-80
2022/10/21 04:33:05;;;;;;;33.30;20.98;;;;;;;7.75;100.00;154476.31;4999329;28;20042;-78
2022/10/21 04:35:30;;;;;;;27.58;19.95;;;;;;;7.75;100.00;154477.59;5011854;28;20519;-79
2022/10/21 04:37:56;;;;;;;28.40;20.05;;;;;;;7.60;100.00;154439.19;5008697;28;20103;-83
2022/10/21 04:40:21;;;;;;;30.77;19.90;;;;;;;7.86;100.00;154503.22;5009819;28;20073;-80
2022/10/21 04:42:48;;;;;;;29.10;20.48;;;;;;;7.80;100.00;154490.41;5011983;28;20504;-80
2022/10/21 04:45:14;;;;;;;32.25;20.13;;;;;;;7.79;100.00;154486.56;5009604;28;20766;-81
2022/10/21 04:47:40;;;;;;;29.20;21.13;;;;;;;7.85;100.00;154500.63;4995692;28;20034;-81
2022/10/21 04:50:06;;;;;;;30.17;20.77;;;;;;;7.72;100.00;154468.63;4995693;28;20160;-80
2022/10/21 04:52:32;;;;;;;30.48;20.80;;;;;;;7.75;100.00;154477.59;5012850;28;20041;-81
2022/10/21 04:54:57;;;;;;;28.38;19.10;;;;;;;7.67;100.00;154457.13;4997692;28;20036;-82
2022/10/21 04:57:23;;;;;;;31.10;20.00;;;;;;;7.75;100.00;154477.59;5011635;28;20056;-82
2022/10/21 04:59:48;;;;;;;31.80;21.27;;;;;;;7.69;100.00;154462.22;5012046;28;20109;-82
2022/10/21 05:02:14;;;;;;;29.45;20.25;;;;;;;7.73;100.00;154471.19;5026053;28;20046;-81
2022/10/21 05:04:40;;;;;;;30.92;21.13;;;;;;;7.66;100.00;154454.53;5010414;28;20033;-80
2022/10/21 05:07:06;;;;;;;31.20;21.38;;;;;;;7.71;100.00;154466.09;5008128;28;20045;-79
2022/10/21 05:09:32;;;;;;;30.60;21.73;;;;;;;7.70;100.00;154463.50;5009395;28;20066;-81
2022/10/21 05:11:57;;;;;;;33.92;21.88;;;;;;;7.64;100.00;154448.16;4993949;28;20034;-81
2022/10/21 05:14:23;;;;;;;32.08;21.08;;;;;;;7.58;100.00;154434.06;5009320;28;20044;-83
2022/10/21 05:16:49;;;;;;;32.67;20.90;;;;;;;7.65;100.00;154450.69;4994106;28;20057;-79
2022/10/21 05:19:14;;;;;;;33.25;22.00;;;;;;;7.66;100.00;154454.53;4995320;28;20540;-83
2022/10/21 05:21:40;;;;;;;35.40;22.13;;;;;;;7.69;100.00;154460.97;4996105;28;20465;-81
2022/10/21 05:24:05;;;;;;;34.60;21.50;;;;;;;7.65;100.00;154452.00;5011657;28;20066;-81
2022/10/21 05:26:31;;;;;;;37.83;22.05;;;;;;;7.65;100.00;154450.69;5009667;28;20056;-77
2022/10/21 05:28:57;;;;;;;31.60;21.67;;;;;;;7.69;100.00;154462.22;4998246;28;20042;-82
2022/10/21 05:31:23;;;;;;;31.77;21.25;;;;;;;7.64;100.00;154449.41;5007876;28;20049;-81
2022/10/21 05:33:49;;;;;;;30.60;22.23;;;;;;;7.74;100.00;154475.06;5008978;28;20022;-80
2022/10/21 05:36:14;;;;;;;35.40;22.98;;;;;;;7.64;100.00;154448.16;5013347;28;20044;-81
2022/10/21 05:38:40;;;;;;;34.55;23.05;;;;;;;7.69;100.00;154460.97;5014178;28;20049;-79
2022/10/21 05:41:05;;;;;;;36.80;22.55;;;;;;;7.74;100.00;154473.72;5012015;28;20054;-79
2022/10/21 05:43:31;;;;;;;32.08;22.42;;;;;;;7.71;100.00;154467.34;5010505;28;20044;-79
2022/10/21 05:45:57;;;;;;;32.22;23.25;;;;;;;7.72;100.00;154468.63;5011821;28;20038;-79
2022/10/21 05:48:23;;;;;;;37.83;24.02;;;;;;;7.77;100.00;154481.44;5015351;28;20038;-79
2022/10/21 05:50:51;;;;;;;37.38;23.73;;;;;;;7.77;100.00;154481.44;5011235;28;20081;-80
2022/10/21 05:53:17;;;;;;;37.92;22.55;;;;;;;7.74;100.00;154473.72;4997809;28;20056;-79
2022/10/21 05:55:42;;;;;;;39.80;23.02;;;;;;;7.77;100.00;154482.69;5027197;28;20091;-79
2022/10/21 05:58:08;;;;;;;29.70;21.63;;;;;;;7.82;100.00;154492.94;5025374;28;20034;-79
2022/10/21 06:00:34;;;;;;;39.30;23.73;;;;;;;7.81;100.00;154491.66;5028567;28;20113;-79
2022/10/21 06:02:59;;;;;;;31.67;21.67;;;;;;;7.85;100.00;154501.91;5011962;28;20041;-78
2022/10/21 06:05:25;;;;;;;35.63;23.83;;;;;;;7.84;100.00;154498.09;5028044;28;20492;-78
2022/10/21 06:07:51;;;;;;;33.30;22.77;;;;;;;7.85;100.00;154501.91;5011499;28;20042;-79
2022/10/21 06:10:16;;;;;;;32.35;22.15;;;;;;;7.87;100.00;154507.03;5011147;28;20030;-80
2022/10/21 06:12:42;;;;;;;34.65;22.13;;;;;;;7.83;100.00;154495.53;5007716;28;20038;-80
2022/10/21 06:15:09;;;;;;;31.52;22.00;;;;;;;8.05;100.00;154551.88;5010850;28;20786;-80
2022/10/21 06:17:34;;;;;;;29.05;21.67;;;;;;;8.04;100.00;154548.03;5010864;28;20044;-79
2022/10/21 06:20:00;;;;;;;37.28;23.33;;;;;;;8.13;100.00;154571.09;5011613;28;20124;-79
2022/10/21 06:22:27;;;;;;;32.53;22.42;;;;;;;8.16;100.00;154580.06;4997090;28;20112;-79
2022/10/21 06:24:53;;;;;;;31.80;22.55;;;;;;;8.20;100.00;154589.03;5012610;28;20142;-78
2022/10/21 06:27:19;;;;;;;33.00;22.08;;;;;;;8.27;100.00;154606.97;5008284;28;20065;-80
2022/10/21 06:29:44;;;;;;;31.85;21.80;;;;;;;8.16;100.00;154578.78;5013311;28;20040;-79
2022/10/21 06:32:11;;;;;;;31.45;22.23;;;;;;;8.29;100.00;154610.81;5012731;28;20038;-80
2022/10/21 06:34:37;;;;;;;33.30;21.48;;;;;;;8.32;100.00;154619.75;5005797;28;20029;-81
2022/10/21 06:37:03;;;;;;;28.95;21.38;;;;;;;8.33;100.00;154621.06;5018381;28;20069;-80
2022/10/21 06:39:28;;;;;;;30.42;21.70;;;;;;;8.42;100.00;154642.84;5012246;28;20057;-80
2022/10/21 06:41:54;;;;;;;31.55;20.48;;;;;;;8.41;100.00;154640.28;5017482;28;20057;-81
2022/10/21 06:44:38;;;;;;;30.15;21.90;;;;;;;8.44;100.00;154649.28;5018933;28;20281;-80
2022/10/21 06:47:04;;;;;;;32.03;22.27;;;;;;;8.39;100.00;154636.41;5001579;28;20045;-79
2022/10/21 06:49:30;;;;;;;32.55;22.15;;;;;;;8.41;100.00;154640.28;4994517;28;20393;-80
2022/10/21 06:51:55;;;;;;;31.00;21.85;;;;;;;8.42;100.00;154644.19;4993471;28;20061;-81
2022/10/21 06:54:21;;;;;;;30.67;22.23;;;;;;;8.47;100.00;154656.94;4991837;28;20045;-78
2022/10/21 06:56:47;;;;;;;28.92;21.77;;;;;;;8.48;100.00;154658.28;4979070;28;20053;-79
2022/10/21 06:59:13;;;;;;;31.77;22.00;;;;;;;8.48;100.00;154659.53;5007653;28;20054;-80
2022/10/21 07:01:39;;;;;;;28.13;21.27;;;;;;;8.43;100.00;154646.72;5008951;28;20058;-80
2022/10/21 07:04:05;;;;;;;28.95;20.90;;;;;;;8.54;100.00;154674.91;4994709;28;20057;-80
2022/10/21 07:06:31;;;;;;;33.35;21.88;;;;;;;8.55;100.00;154676.16;5008308;28;20042;-80
2022/10/21 07:08:57;;;;;;;31.77;20.92;;;;;;;8.50;100.00;154664.66;4990430;28;20042;-80
2022/10/21 07:11:23;;;;;;;30.73;21.55;;;;;;;8.57;100.00;154682.59;4993593;28;20077;-78
2022/10/21 07:13:48;;;;;;;32.25;22.83;;;;;;;8.58;100.00;154683.88;5024260;28;20022;-79
2022/10/21 07:16:36;;;;;;;30.90;21.63;;;;;;;8.58;100.00;154685.13;5007143;28;20044;-79
2022/10/21 07:19:03;;;;;;;34.72;22.05;;;;;;;8.63;100.00;154696.69;4992690;28;20044;-79
2022/10/21 07:21:29;;;;;;;34.22;22.13;;;;;;;8.63;100.00;154696.69;5005681;28;20988;-78
2022/10/21 07:23:58;;;;;;;28.30;21.38;;;;;;;8.65;100.00;154701.81;4991727;28;20034;-79
2022/10/21 07:26:24;;;;;;;27.88;21.20;;;;;;;8.63;100.00;154696.69;5013149;28;20048;-80
2022/10/21 07:28:51;;;;;;;33.53;21.70;;;;;;;8.73;100.00;154722.31;5008683;28;20037;-80
2022/10/21 07:31:19;;;;;;;29.40;20.27;;;;;;;8.80;100.00;154738.97;5021857;28;20559;-79
2022/10/21 07:33:45;;;;;;;27.77;19.65;;;;;;;8.81;100.00;154740.25;5022309;28;20506;-80
2022/10/21 07:36:31;;;;;;;28.83;20.42;;;;;;;8.81;100.00;154741.53;5009007;28;20049;-79
2022/10/21 07:39:01;;;;;;;28.10;20.55;;;;;;;8.82;100.00;154744.09;5021721;28;20084;-79
2022/10/21 07:41:36;;;;;;;26.67;20.13;;;;;;;8.94;100.00;154774.84;5003451;28;20038;-82
2022/10/21 07:44:04;;;;;;;26.27;19.63;;;;;;;8.94;100.00;154773.56;4994269;28;20581;-78
2022/10/21 07:46:30;;;;;;;27.98;19.83;;;;;;;9.02;100.00;154794.06;4998498;28;20568;-77
2022/10/21 07:48:55;;;;;;;27.25;20.02;;;;;;;9.02;100.00;154792.78;5009802;28;20140;-78
2022/10/21 07:51:23;;;;;;;27.00;19.65;;;;;;;9.07;100.00;154806.88;5012281;28;20415;-81
2022/10/21 07:53:52;;;;;;;29.15;19.92;;;;;;;9.09;100.00;154810.75;5012606;28;20117;-80
2022/10/21 07:56:24;;;;;;;31.80;19.73;;;;;;;9.12;100.00;154818.44;5010202;28;21712;-79
2022/10/21 07:58:51;;;;;;;31.48;20.42;;;;;;;9.07;100.00;154806.88;5027770;28;20528;-77
2022/10/21 08:01:17;;;;;;;31.17;19.52;;;;;;;9.16;100.00;154829.97;5011224;28;20072;-79
2022/10/21 08:03:43;;;;;;;24.80;18.75;;;;;;;9.17;100.00;154831.22;5028272;28;20025;-80
2022/10/21 08:06:10;;;;;;;28.13;19.67;;;;;;;9.14;100.00;154823.56;5008990;28;20070;-79
2022/10/21 08:08:36;;;;;;;26.80;19.73;;;;;;;9.11;100.00;154815.88;4993623;28;20144;-81
2022/10/21 08:11:03;;;;;;;26.02;20.30;;;;;;;9.09;100.00;154812.00;5009773;28;20038;-78
2022/10/21 08:13:30;;;;;;;24.95;20.02;;;;;;;9.08;100.00;154809.47;5011490;28;20460;-80
2022/10/21 08:15:57;;;;;;;30.92;21.35;;;;;;;9.07;100.00;154806.88;5013141;28;20400;-81
2022/10/21 08:18:25;;;;;;;32.42;21.25;;;;;;;9.00;100.00;154788.94;5007940;28;20034;-80
2022/10/21 08:20:50;;;;;;;28.42;21.25;;;;;;;9.08;100.00;154809.47;5019020;28;20145;-79
2022/10/21 08:23:18;;;;;;;28.63;21.25;;;;;;;9.06;100.00;154803.03;4991926;28;20123;-82
2022/10/21 08:25:49;;;;;;;30.48;21.15;;;;;;;8.94;100.00;154773.56;4996361;28;20187;-80
2022/10/21 08:28:15;;;;;;;26.77;21.80;;;;;;;8.86;100.00;154754.34;5009319;28;20113;-80
2022/10/21 08:30:42;;;;;;;28.38;21.80;;;;;;;8.85;100.00;154750.50;5027112;28;20128;-78
2022/10/21 08:33:08;;;;;;;31.55;21.45;;;;;;;8.79;100.00;154736.41;5025948;28;20037;-81
2022/10/21 08:35:33;;;;;;;30.33;21.83;;;;;;;8.87;100.00;154755.63;5009455;28;20038;-80
2022/10/21 08:37:59;;;;;;;31.17;22.55;;;;;;;8.75;100.00;154727.44;5030646;28;20044;-81
2022/10/21 08:40:27;;;;;;;30.15;22.38;;;;;;;8.79;100.00;154736.41;5008027;28;20046;-78
2022/10/21 08:42:52;;;;;;;32.65;22.98;;;;;;;8.71;100.00;154717.19;5009106;28;20738;-80
2022/10/21 08:45:32;;;;;;;32.58;22.30;;;;;;;8.76;100.00;154730.00;4978017;28;20052;-79
2022/10/21 08:48:04;;;;;;;29.50;22.85;;;;;;;8.74;100.00;154723.63;4977217;28;20038;-79
2022/10/21 08:50:37;;;;;;;32.08;22.35;;;;;;;8.82;100.00;154742.84;4998632;28;20128;-82
2022/10/21 08:53:34;;;;;;;33.22;23.25;;;;;;;8.86;100.00;154754.34;5007370;28;20029;-81
2022/10/21 08:56:10;;;;;;;30.98;23.08;;;;;;;8.87;100.00;154756.94;4999053;28;20042;-79
2022/10/21 08:58:36;;;;;;;29.17;22.70;;;;;;;8.93;100.00;154771.03;5021351;28;20038;-78
2022/10/21 09:01:09;;;;;;;29.95;22.13;;;;;;;8.94;100.00;154774.84;4993233;28;20040;-79
2022/10/21 09:03:54;;;;;;;31.75;22.80;;;;;;;9.00;100.00;154787.66;5005730;28;20034;-79
2022/10/21 09:06:32;;;;;;;31.58;21.92;;;;;;;9.00;100.00;154788.94;5006771;28;20481;-79
2022/10/21 09:09:11;;;;;;;35.08;21.98;;;;;;;9.06;100.00;154804.34;4993038;28;20041;-79
2022/10/21 09:11:43;;;;;;;26.63;21.50;;;;;;;9.09;100.00;154812.00;5001038;28;20042;-79
2022/10/21 09:14:18;;;;;;;27.13;20.70;;;;;;;9.15;100.00;154826.09;4999401;28;20129;-80
2022/10/21 09:16:49;;;;;;;27.58;21.30;;;;;;;9.22;100.00;154844.06;5004002;28;20769;-78
2022/10/21 09:19:45;;;;;;;29.30;21.85;;;;;;;9.29;100.00;154862.03;5007029;28;20096;-78
2022/10/21 09:22:41;;;;;;;28.85;22.42;;;;;;;9.42;100.00;154894.06;5021381;28;20072;-79
2022/10/21 09:25:17;;;;;;;27.85;21.80;;;;;;;9.54;100.00;154923.56;4996778;28;20037;-78
2022/10/21 09:27:43;;;;;;;27.73;20.48;;;;;;;9.66;100.00;154954.34;5006698;28;20496;-78
2022/10/21 09:30:15;;;;;;;29.13;21.05;;;;;;;9.68;100.00;154959.47;4997707;28;20034;-79
2022/10/21 09:32:48;;;;;;;26.17;19.52;;;;;;;9.83;100.00;154996.66;5009093;28;20041;-78
2022/10/21 09:35:28;;;;;;;27.45;20.23;;;;;;;9.78;100.00;154982.56;4994497;28;20029;-78
2022/10/21 09:38:26;;;;;;;26.98;19.55;;;;;;;9.80;100.00;154987.69;5009488;28;20042;-80
2022/10/21 09:41:00;;;;;;;25.73;19.70;;;;;;;9.85;100.00;155000.47;5014039;28;20032;-79
2022/10/21 09:43:26;;;;;;;30.25;20.98;;;;;;;9.84;100.00;154999.19;5001973;28;20082;-78
2022/10/21 09:45:52;;;;;;;27.45;20.38;;;;;;;9.92;100.00;155018.44;5026105;28;20037;-78
2022/10/21 09:48:18;;;;;;;26.27;20.42;;;;;;;10.01;100.00;155041.50;4996928;28;20068;-79
2022/10/21 09:50:46;;;;;;;27.80;20.23;;;;;;;10.11;100.00;155065.88;4998492;28;20069;-79
2022/10/21 09:53:22;;;;;;;28.10;20.15;;;;;;;10.23;100.00;155095.41;5007030;28;20038;-79
2022/10/21 09:55:51;;;;;;;23.65;19.38;;;;;;;10.32;100.00;155119.81;4994927;28;20033;-80
2022/10/21 09:58:26;;;;;;;24.60;19.08;;;;;;;10.32;100.00;155119.81;5009225;28;20038;-79
2022/10/21 10:00:52;;;;;;;23.92;19.08;;;;;;;10.39;100.00;155135.19;5024572;28;20088;-78
2022/10/21 10:03:36;;;;;;;24.20;18.27;;;;;;;10.56;100.00;155177.53;5008993;28;20038;-79
2022/10/21 10:06:04;;;;;;;27.55;18.50;;;;;;;10.75;100.00;155226.28;5008440;28;20050;-80
2022/10/21 10:08:32;;;;;;;26.23;18.85;;;;;;;10.91;100.00;155266.06;5008228;28;20703;-78
2022/10/21 10:11:23;;;;;;;28.38;19.55;;;;;;;11.09;100.00;155312.28;5008239;28;20084;-82
2022/10/21 10:13:52;;;;;;;25.42;17.02;;;;;;;11.36;100.00;155377.69;4984576;28;20191;-81
2022/10/21 10:16:26;;;;;;;23.05;16.75;;;;;;;11.54;100.00;155422.66;5010639;28;20069;-80
2022/10/21 10:19:20;;;;;;;25.15;17.02;;;;;;;11.64;100.00;155449.63;5009099;28;20042;-80
2022/10/21 10:22:05;;;;;;;26.52;17.33;;;;;;;11.80;100.00;155488.13;5022220;28;20073;-79
2022/10/21 10:24:32;;;;;;;22.05;16.33;;;;;;;11.86;100.00;155503.53;5007826;28;20080;-80
2022/10/21 10:27:04;;;;;;;19.42;16.58;;;;;;;12.02;100.00;155544.69;4995890;28;20034;-81
2022/10/21 10:29:32;;;;;;;24.13;15.80;;;;;;;12.16;100.00;155579.34;5025360;28;20041;-82
2022/10/21 10:32:00;;;;;;;22.38;16.42;;;;;;;12.23;100.00;155597.31;5008678;28;20404;-80
2022/10/21 10:34:30;;;;;;;23.27;16.75;;;;;;;12.40;100.00;155639.72;5022587;28;20111;-81
2022/10/21 10:37:04;;;;;;;21.33;15.40;;;;;;;12.54;100.00;155674.38;5007496;28;20029;-79
2022/10/21 10:39:33;;;;;;;21.75;15.73;;;;;;;12.70;100.00;155714.22;4993907;28;20411;-81
2022/10/21 10:42:00;;;;;;;19.20;14.98;;;;;;;12.74;100.00;155723.22;5010190;28;20065;-82
2022/10/21 10:44:32;;;;;;;25.48;15.77;;;;;;;12.85;100.00;155751.47;5024794;28;20041;-82
2022/10/21 10:47:02;;;;;;;21.35;15.05;;;;;;;13.02;100.00;155795.16;4994930;28;20484;-80
2022/10/21 10:49:35;;;;;;;21.10;15.40;;;;;;;13.03;100.00;155797.75;5011560;28;20040;-80
2022/10/21 10:52:10;;;;;;;19.73;14.65;;;;;;;13.11;100.00;155817.00;5022272;28;20710;-82
2022/10/21 10:54:37;;;;;;;19.38;14.18;;;;;;;13.27;100.00;155856.81;5010198;28;20119;-80
2022/10/21 10:57:13;;;;;;;21.52;15.50;;;;;;;13.40;100.00;155890.28;5010821;28;20637;-78
2022/10/21 10:59:43;;;;;;;21.35;14.65;;;;;;;13.45;100.00;155901.88;4984353;28;20033;-80
2022/10/21 11:02:10;;;;;;;20.95;14.32;;;;;;;13.48;100.00;155909.56;5023559;28;20049;-81
2022/10/21 11:04:57;;;;;;;20.42;14.45;;;;;;;13.76;100.00;155978.97;4986764;28;20050;-77
2022/10/21 11:07:51;;;;;;;18.15;14.07;;;;;;;14.05;100.00;156050.97;5007817;28;20054;-80
2022/10/21 11:10:32;;;;;;;18.98;14.10;;;;;;;14.09;100.00;156062.56;4994250;28;20037;-79
2022/10/21 11:13:00;;;;;;;19.15;14.63;;;;;;;14.06;100.00;156053.56;5011184;28;20100;-79
2022/10/21 11:15:51;;;;;;;18.35;13.68;;;;;;;14.11;100.00;156067.69;5001785;28;20050;-80
2022/10/21 11:18:27;;;;;;;18.63;13.88;;;;;;;14.34;100.00;156125.56;5011980;28;20065;-77
2022/10/21 11:21:22;;;;;;;17.65;12.88;;;;;;;14.62;100.00;156193.75;5015280;28;20037;-79